Time;durP1;ratioP1;P1;durP2;ratioP2;P2;SDS_P1;SDS_P2;PMS_P1;PMS_P2;Temp;Humidity;BMP_temperature;BMP_pressure;BME280_temperature;BME280_humidity;BME280_pressure;Samples;Min_cycle;Max_cycle;Signal;HPM_P1;HPM_P2
2021/03/01 00:02:04;;;;;;;33.35;17.13;;;;;;;0.99;71.03;96672.56;5013943;28;20037;-79
2021/03/01 00:04:30;;;;;;;30.13;17.17;;;;;;;1.10;70.72;96683.44;5014182;28;20087;-79
2021/03/01 00:06:55;;;;;;;28.33;16.38;;;;;;;1.01;70.41;96675.78;5015619;28;20133;-77
2021/03/01 00:09:20;;;;;;;29.88;15.55;;;;;;;1.02;70.00;96690.50;5012771;28;20084;-75
2021/03/01 00:11:46;;;;;;;23.58;15.90;;;;;;;0.96;70.45;96675.59;5013724;28;20042;-78
2021/03/01 00:14:11;;;;;;;27.88;16.20;;;;;;;0.95;71.16;96670.56;5013757;28;20399;-78
2021/03/01 00:16:36;;;;;;;23.30;14.68;;;;;;;0.93;70.67;96660.28;5013805;28;20045;-77
2021/03/01 00:19:02;;;;;;;22.10;14.18;;;;;;;0.82;71.33;96671.41;5014243;28;20029;-79
2021/03/01 00:21:27;;;;;;;22.17;13.90;;;;;;;0.88;71.66;96670.59;5012208;28;20041;-77
2021/03/01 00:23:53;;;;;;;22.38;14.63;;;;;;;0.96;71.28;96672.16;5013792;28;20484;-78
2021/03/01 00:26:18;;;;;;;21.67;14.63;;;;;;;0.92;71.27;96663.94;5013737;28;20526;-79
2021/03/01 00:28:44;;;;;;;22.73;13.55;;;;;;;0.94;71.66;96675.00;5013537;28;20085;-77
2021/03/01 00:31:09;;;;;;;26.08;14.40;;;;;;;0.97;71.32;96661.50;5013357;28;20018;-78
2021/03/01 00:33:34;;;;;;;23.65;14.55;;;;;;;0.94;71.15;96648.81;5015313;28;20026;-79
2021/03/01 00:36:00;;;;;;;28.83;14.95;;;;;;;1.08;70.91;96664.50;5013501;28;20029;-79
2021/03/01 00:38:25;;;;;;;18.63;13.43;;;;;;;1.07;70.90;96663.66;5011638;28;20030;-78
2021/03/01 00:40:50;;;;;;;26.33;14.63;;;;;;;1.06;70.54;96667.31;5013185;28;20092;-76
2021/03/01 00:43:16;;;;;;;23.77;14.48;;;;;;;1.03;70.51;96680.84;5013209;28;20033;-80
2021/03/01 00:45:41;;;;;;;16.95;13.43;;;;;;;0.97;70.54;96664.13;5015239;28;20034;-79
2021/03/01 00:48:07;;;;;;;29.00;15.27;;;;;;;0.94;70.66;96661.91;5013232;28;20045;-79
2021/03/01 00:50:32;;;;;;;23.45;15.13;;;;;;;0.98;70.60;96664.94;5013114;28;20510;-79
2021/03/01 00:52:57;;;;;;;27.75;15.23;;;;;;;0.94;70.63;96659.28;5013193;28;20125;-78
2021/03/01 00:55:23;;;;;;;18.35;13.18;;;;;;;0.93;70.25;96673.41;5011983;28;20052;-78
2021/03/01 00:57:48;;;;;;;20.75;14.43;;;;;;;0.84;70.64;96663.34;5014521;28;20025;-79
2021/03/01 01:00:16;;;;;;;23.77;14.05;;;;;;;0.84;71.02;96669.38;5011562;28;20038;-77
2021/03/01 01:02:42;;;;;;;21.70;14.15;;;;;;;0.75;71.15;96660.94;5012741;28;20030;-77
2021/03/01 01:05:08;;;;;;;22.15;14.80;;;;;;;0.79;70.56;96682.28;5011771;28;20125;-76
2021/03/01 01:07:34;;;;;;;22.27;13.63;;;;;;;0.60;71.04;96668.19;5012442;28;20026;-77
2021/03/01 01:09:59;;;;;;;19.75;14.15;;;;;;;0.61;71.40;96661.94;5013559;28;20029;-77
2021/03/01 01:12:25;;;;;;;25.80;15.35;;;;;;;0.61;71.16;96664.56;5012835;28;20083;-78
2021/03/01 01:14:50;;;;;;;19.52;13.82;;;;;;;0.63;70.76;96680.91;5012821;28;20125;-78
2021/03/01 01:17:15;;;;;;;24.63;15.13;;;;;;;0.60;70.58;96683.09;5012321;28;20065;-77
2021/03/01 01:19:41;;;;;;;25.80;15.77;;;;;;;0.41;71.09;96650.69;5012198;28;20107;-79
2021/03/01 01:22:06;;;;;;;23.15;14.88;;;;;;;0.54;71.01;96668.22;5014182;28;20026;-78
2021/03/01 01:24:31;;;;;;;25.75;14.18;;;;;;;0.52;70.86;96671.84;5010957;28;20044;-78
2021/03/01 01:26:56;;;;;;;22.98;14.35;;;;;;;0.51;70.80;96683.34;5012342;28;20049;-79
2021/03/01 01:29:22;;;;;;;22.67;14.77;;;;;;;0.40;70.82;96672.66;5011085;28;20511;-77
2021/03/01 01:31:47;;;;;;;24.33;14.05;;;;;;;0.29;71.71;96681.09;5012352;28;20093;-77
2021/03/01 01:34:12;;;;;;;28.95;15.10;;;;;;;0.29;72.09;96666.22;5013037;28;20177;-76
2021/03/01 01:36:38;;;;;;;20.35;13.60;;;;;;;0.39;72.03;96677.06;5016793;28;20042;-77
2021/03/01 01:39:04;;;;;;;20.95;13.95;;;;;;;0.34;71.69;96663.78;5009810;28;20084;-77
2021/03/01 01:41:29;;;;;;;20.92;14.05;;;;;;;0.40;72.19;96662.97;5010860;28;20038;-77
2021/03/01 01:43:55;;;;;;;23.40;14.20;;;;;;;0.43;71.58;96662.59;5010852;28;20052;-78
2021/03/01 01:46:20;;;;;;;25.40;13.77;;;;;;;0.36;71.44;96659.19;5010725;28;20053;-78
2021/03/01 01:48:46;;;;;;;28.02;14.75;;;;;;;0.35;71.54;96669.81;5013552;28;20032;-78
2021/03/01 01:51:11;;;;;;;27.05;14.73;;;;;;;0.28;72.21;96663.81;5011795;28;20496;-77
2021/03/01 01:53:38;;;;;;;23.60;14.82;;;;;;;0.28;72.14;96677.69;5010387;28;20041;-78
2021/03/01 01:56:03;;;;;;;28.50;16.08;;;;;;;0.28;72.53;96676.88;5011520;28;20042;-76
2021/03/01 01:58:29;;;;;;;35.97;18.05;;;;;;;0.29;72.26;96668.81;5011609;28;20160;-75
2021/03/01 02:00:55;;;;;;;34.58;16.58;;;;;;;0.25;72.56;96654.53;5013205;28;20026;-78
2021/03/01 02:03:58;;;;;;;27.25;15.82;;;;;;;0.33;71.76;96662.19;5011373;28;20076;-78
2021/03/01 02:06:46;;;;;;;33.15;16.27;;;;;;;0.32;71.90;96660.56;5011627;28;20046;-76
2021/03/01 02:09:24;;;;;;;31.70;16.85;;;;;;;0.22;71.69;96645.28;5010653;28;20041;-78
2021/03/01 02:11:53;;;;;;;35.78;16.77;;;;;;;0.21;72.30;96642.88;5011255;28;20129;-78
2021/03/01 02:14:33;;;;;;;27.83;15.40;;;;;;;0.22;72.05;96649.72;5010059;28;20039;-77
2021/03/01 02:16:59;;;;;;;32.20;16.02;;;;;;;0.19;71.97;96640.44;5011355;28;20042;-77
2021/03/01 02:19:25;;;;;;;30.50;15.68;;;;;;;0.14;72.19;96623.72;5011259;28;20030;-77
2021/03/01 02:21:50;;;;;;;25.02;14.80;;;;;;;0.24;72.04;96634.59;5012918;28;20041;-78
2021/03/01 02:24:21;;;;;;;25.58;14.82;;;;;;;0.27;72.44;96642.06;5010993;28;20117;-77
2021/03/01 02:26:50;;;;;;;31.10;15.00;;;;;;;0.30;71.94;96641.63;5009166;28;20411;-77
2021/03/01 02:29:19;;;;;;;22.08;14.50;;;;;;;0.32;72.30;96639.66;5011255;28;20069;-77
2021/03/01 02:31:45;;;;;;;22.05;14.32;;;;;;;0.33;72.32;96637.81;5011239;28;20049;-77
2021/03/01 02:34:15;;;;;;;25.30;14.25;;;;;;;0.34;72.21;96634.19;5009903;28;20030;-78
2021/03/01 02:36:45;;;;;;;22.00;14.07;;;;;;;0.29;72.48;96629.56;5012999;28;20468;-78
2021/03/01 02:39:15;;;;;;;22.42;14.27;;;;;;;0.34;72.42;96644.66;5010664;28;20045;-77
2021/03/01 02:41:41;;;;;;;22.48;13.80;;;;;;;0.22;72.09;96626.16;5010563;28;20041;-77
2021/03/01 02:44:06;;;;;;;20.40;14.07;;;;;;;0.18;72.49;96638.84;5009409;28;20048;-77
2021/03/01 02:46:33;;;;;;;25.85;14.23;;;;;;;0.19;72.59;96635.19;5009195;28;20400;-77
2021/03/01 02:48:59;;;;;;;22.52;13.13;;;;;;;0.19;72.33;96637.81;5012275;28;20025;-76
2021/03/01 02:51:25;;;;;;;21.52;14.35;;;;;;;0.24;72.53;96652.91;5009048;28;20030;-77
2021/03/01 02:53:51;;;;;;;24.50;15.30;;;;;;;0.18;72.39;96654.53;5010489;28;20052;-79
2021/03/01 02:56:19;;;;;;;23.17;14.38;;;;;;;0.18;72.11;96649.31;5010658;28;20034;-78
2021/03/01 02:58:46;;;;;;;25.98;14.07;;;;;;;0.11;72.08;96639.84;5010234;28;20042;-78
2021/03/01 03:01:11;;;;;;;21.40;13.40;;;;;;;-0.08;72.78;96634.41;5008950;28;20029;-76
2021/03/01 03:03:40;;;;;;;17.70;12.40;;;;;;;0.04;72.79;96642.44;5012182;28;20026;-76
2021/03/01 03:06:10;;;;;;;22.90;13.93;;;;;;;-0.04;73.13;96645.28;5010183;28;20061;-78
2021/03/01 03:08:37;;;;;;;26.25;13.10;;;;;;;0.01;73.35;96640.25;5009872;28;20038;-77
2021/03/01 03:11:02;;;;;;;30.38;13.05;;;;;;;0.10;72.39;96651.28;5008930;28;20041;-77
2021/03/01 03:13:29;;;;;;;17.73;12.02;;;;;;;-0.06;73.24;96637.59;5008989;28;20180;-76
2021/03/01 03:15:56;;;;;;;17.65;12.88;;;;;;;-0.01;72.88;96629.97;5012162;28;20026;-78
2021/03/01 03:18:23;;;;;;;19.48;13.15;;;;;;;-0.08;72.84;96650.09;5008498;28;20484;-77
2021/03/01 03:20:50;;;;;;;21.45;13.80;;;;;;;0.03;72.90;96653.13;5010596;28;20041;-77
2021/03/01 03:23:17;;;;;;;23.20;12.95;;;;;;;0.01;72.55;96652.53;5014161;28;20491;-77
2021/03/01 03:25:42;;;;;;;17.33;12.30;;;;;;;-0.02;72.74;96632.78;5012893;28;20550;-78
2021/03/01 03:28:07;;;;;;;24.95;13.48;;;;;;;0.05;72.44;96643.25;5015660;28;20026;-78
2021/03/01 03:30:33;;;;;;;21.55;14.20;;;;;;;0.01;72.16;96645.47;5013886;28;20058;-78
2021/03/01 03:32:59;;;;;;;25.50;13.73;;;;;;;-0.05;72.49;96639.25;5012575;28;20034;-78
2021/03/01 03:35:25;;;;;;;22.50;14.07;;;;;;;-0.02;72.59;96657.13;5013979;28;20129;-77
2021/03/01 03:38:16;;;;;;;20.25;13.80;;;;;;;-0.11;72.29;96634.78;5013529;28;20518;-77
2021/03/01 03:40:44;;;;;;;22.42;13.50;;;;;;;-0.01;72.36;96648.28;5002027;28;20042;-77
2021/03/01 03:43:12;;;;;;;22.90;13.32;;;;;;;-0.02;72.68;96653.72;5012930;28;20416;-76
2021/03/01 03:45:39;;;;;;;24.50;13.52;;;;;;;-0.04;72.48;96647.88;5016106;28;20087;-76
2021/03/01 03:48:05;;;;;;;27.40;14.07;;;;;;;-0.07;72.15;96651.69;5013683;28;20053;-76
2021/03/01 03:50:33;;;;;;;22.52;13.73;;;;;;;-0.09;72.20;96647.69;5014090;28;20046;-76
2021/03/01 03:53:04;;;;;;;23.77;13.75;;;;;;;-0.11;72.50;96655.72;5013834;28;20202;-78
2021/03/01 03:55:32;;;;;;;20.42;13.45;;;;;;;-0.14;72.13;96653.50;5012715;28;20512;-76
2021/03/01 03:58:00;;;;;;;20.55;13.20;;;;;;;-0.12;72.62;96654.09;5014684;28;20029;-76
2021/03/01 04:00:32;;;;;;;19.52;12.07;;;;;;;-0.14;72.29;96658.75;5013494;28;20404;-77
2021/03/01 04:03:00;;;;;;;26.02;14.00;;;;;;;-0.20;72.29;96651.69;5013295;28;20034;-76
2021/03/01 04:05:28;;;;;;;19.20;11.95;;;;;;;-0.21;72.40;96659.72;5013396;28;20530;-76
2021/03/01 04:07:55;;;;;;;21.50;12.68;;;;;;;-0.22;72.70;96647.66;5012937;28;20034;-77
2021/03/01 04:10:22;;;;;;;24.33;12.52;;;;;;;-0.18;72.87;96665.34;5013269;28;20026;-76
2021/03/01 04:12:50;;;;;;;23.95;12.35;;;;;;;-0.15;73.64;96666.78;5015162;28;20533;-77
2021/03/01 04:15:17;;;;;;;23.25;12.98;;;;;;;-0.17;73.36;96656.50;5013138;28;20049;-76
2021/03/01 04:17:43;;;;;;;18.63;12.55;;;;;;;-0.09;72.87;96668.59;5011579;28;20403;-76
2021/03/01 04:20:11;;;;;;;21.48;12.95;;;;;;;-0.14;72.85;96665.78;5011350;28;20083;-76
2021/03/01 04:22:37;;;;;;;19.52;12.77;;;;;;;-0.04;73.58;96666.19;5012943;28;20396;-76
2021/03/01 04:25:05;;;;;;;16.17;11.95;;;;;;;0.01;73.50;96665.59;5014875;28;20022;-74
2021/03/01 04:27:31;;;;;;;22.50;13.88;;;;;;;0.03;73.61;96661.78;5011520;28;20076;-76
2021/03/01 04:29:58;;;;;;;19.30;13.38;;;;;;;-0.04;74.78;96659.16;5013001;28;20058;-76
2021/03/01 04:32:24;;;;;;;22.98;13.13;;;;;;;0.11;74.23;96661.59;5011871;28;20030;-76
2021/03/01 04:34:51;;;;;;;22.48;14.30;;;;;;;0.16;73.92;96653.13;5013056;28;20037;-77
2021/03/01 04:37:16;;;;;;;19.45;12.77;;;;;;;0.24;73.48;96664.19;5012669;28;20442;-75
2021/03/01 04:39:42;;;;;;;20.80;12.77;;;;;;;0.25;73.66;96668.41;5014664;28;20054;-77
2021/03/01 04:42:07;;;;;;;20.48;13.38;;;;;;;0.17;73.19;96652.13;5011159;28;20125;-77
2021/03/01 04:44:33;;;;;;;23.85;13.68;;;;;;;0.30;73.41;96667.81;5012788;28;20026;-76
2021/03/01 04:47:00;;;;;;;22.05;14.18;;;;;;;0.23;73.28;96664.41;5012419;28;20557;-76
2021/03/01 04:49:26;;;;;;;24.63;14.23;;;;;;;0.26;72.91;96664.00;5012585;28;20072;-77
2021/03/01 04:51:53;;;;;;;22.65;14.38;;;;;;;0.16;73.37;96656.56;5012751;28;20033;-77
2021/03/01 04:54:20;;;;;;;23.60;14.50;;;;;;;0.29;73.30;96660.97;5011268;28;20125;-75
2021/03/01 04:56:46;;;;;;;25.40;13.65;;;;;;;0.27;73.41;96646.50;5012037;28;20038;-80
2021/03/01 04:59:18;;;;;;;21.65;13.48;;;;;;;0.28;73.06;96642.88;5011926;28;20107;-77
2021/03/01 05:01:47;;;;;;;22.67;13.55;;;;;;;0.33;73.01;96651.72;5010758;28;20045;-77
2021/03/01 05:04:13;;;;;;;27.73;14.80;;;;;;;0.25;72.71;96644.06;5010751;28;20030;-76
2021/03/01 05:06:39;;;;;;;21.70;14.00;;;;;;;0.24;72.84;96645.88;5013853;28;20118;-76
2021/03/01 05:09:05;;;;;;;19.67;13.23;;;;;;;0.23;73.20;96656.53;5011886;28;20120;-77
2021/03/01 05:11:33;;;;;;;25.33;14.88;;;;;;;0.27;72.98;96657.75;5010603;28;20042;-76
2021/03/01 05:14:00;;;;;;;26.05;14.00;;;;;;;0.29;72.92;96652.31;5011053;28;20049;-77
2021/03/01 05:16:29;;;;;;;29.77;16.25;;;;;;;0.24;72.79;96645.06;5012046;28;20022;-76
2021/03/01 05:18:55;;;;;;;33.13;16.15;;;;;;;0.21;72.88;96651.53;5013488;28;20034;-75
2021/03/01 05:21:21;;;;;;;26.88;16.38;;;;;;;0.20;72.76;96649.09;5011748;28;20041;-76
2021/03/01 05:23:47;;;;;;;24.60;14.85;;;;;;;0.20;73.12;96646.47;5011838;28;20042;-77
2021/03/01 05:26:15;;;;;;;29.67;15.45;;;;;;;0.17;73.02;96647.69;5011538;28;20403;-76
2021/03/01 05:28:40;;;;;;;25.30;15.07;;;;;;;0.17;73.75;96641.66;5011624;28;20503;-77
2021/03/01 05:31:06;;;;;;;29.70;15.82;;;;;;;0.15;74.01;96635.81;5012494;28;20025;-78
2021/03/01 05:33:32;;;;;;;33.70;15.52;;;;;;;0.24;73.47;96642.44;5010146;28;20061;-77
2021/03/01 05:35:57;;;;;;;28.20;15.85;;;;;;;0.26;73.67;96648.31;5011916;28;20033;-76
2021/03/01 05:38:23;;;;;;;29.85;16.60;;;;;;;0.15;73.46;96634.00;5011194;28;20057;-78
2021/03/01 05:40:49;;;;;;;28.70;16.67;;;;;;;0.21;73.46;96637.63;5011576;28;20042;-75
2021/03/01 05:43:14;;;;;;;34.33;16.55;;;;;;;0.22;73.29;96636.63;5011355;28;20089;-77
2021/03/01 05:45:42;;;;;;;33.70;17.27;;;;;;;0.19;73.14;96645.66;5012194;28;20084;-77
2021/03/01 05:48:10;;;;;;;21.05;14.57;;;;;;;0.17;73.08;96646.88;5011090;28;20030;-77
2021/03/01 05:50:38;;;;;;;25.80;15.07;;;;;;;0.23;73.28;96657.34;5010167;28;20041;-76
2021/03/01 05:53:08;;;;;;;19.60;13.80;;;;;;;0.18;72.91;96649.31;5010785;28;20041;-77
2021/03/01 05:55:34;;;;;;;24.02;15.32;;;;;;;0.20;72.79;96654.31;5009814;28;20044;-77
2021/03/01 05:58:00;;;;;;;27.55;14.93;;;;;;;0.20;72.95;96657.75;5012649;28;20037;-75
2021/03/01 06:00:27;;;;;;;26.13;15.65;;;;;;;0.22;72.69;96660.97;5011035;28;20042;-77
2021/03/01 06:02:55;;;;;;;26.48;14.77;;;;;;;0.10;72.79;96646.06;5010560;28;20088;-77
2021/03/01 06:05:21;;;;;;;26.38;15.38;;;;;;;0.22;73.12;96654.94;5011001;28;20053;-77
2021/03/01 06:07:48;;;;;;;25.17;15.48;;;;;;;0.25;72.83;96660.56;5010391;28;20042;-77
2021/03/01 06:10:13;;;;;;;26.15;15.43;;;;;;;0.20;72.68;96662.16;5009285;28;20061;-78
2021/03/01 06:12:38;;;;;;;32.25;16.33;;;;;;;0.29;72.74;96668.03;5011094;28;20057;-77
2021/03/01 06:15:05;;;;;;;26.15;14.93;;;;;;;0.20;72.94;96646.47;5009192;28;20042;-77
2021/03/01 06:17:30;;;;;;;22.83;14.98;;;;;;;0.29;72.99;96655.75;5009983;28;20034;-79
2021/03/01 06:19:58;;;;;;;26.50;15.07;;;;;;;0.36;73.16;96645.25;5011751;28;20407;-80
2021/03/01 06:22:41;;;;;;;29.77;15.20;;;;;;;0.49;72.79;96661.78;5011471;28;20029;-80
2021/03/01 06:25:07;;;;;;;25.58;15.13;;;;;;;0.56;72.66;96674.84;5013738;28;20026;-80
2021/03/01 06:27:51;;;;;;;24.20;14.95;;;;;;;0.62;72.76;96681.13;5011573;28;20496;-78
2021/03/01 06:30:19;;;;;;;21.98;15.55;;;;;;;0.67;72.71;96678.69;5014642;28;20054;-74
2021/03/01 06:33:02;;;;;;;33.50;16.23;;;;;;;0.73;72.60;96676.06;5013885;28;20049;-79
2021/03/01 06:35:34;;;;;;;21.67;14.80;;;;;;;0.79;72.79;96669.19;5013160;28;20480;-74
2021/03/01 06:38:18;;;;;;;29.83;17.75;;;;;;;0.90;72.50;96675.63;5008178;23;20042;-79
2021/03/01 06:41:03;;;;;;;23.70;16.30;;;;;;;0.81;72.69;96675.00;4989637;28;20104;-74
2021/03/01 06:43:29;;;;;;;24.63;16.50;;;;;;;1.02;72.46;96682.66;4971782;28;20034;-75
2021/03/01 06:46:06;;;;;;;32.47;17.20;;;;;;;0.99;72.30;96672.56;4991543;28;20508;-77
2021/03/01 06:48:31;;;;;;;35.75;16.45;;;;;;;1.13;72.07;96688.28;4989438;28;20117;-77
2021/03/01 06:50:57;;;;;;;33.90;17.40;;;;;;;1.15;72.09;96675.75;4989729;28;20127;-76
2021/03/01 06:53:22;;;;;;;27.55;16.73;;;;;;;1.30;71.78;96694.66;4971909;28;20046;-76
2021/03/01 06:56:08;;;;;;;27.88;16.05;;;;;;;1.38;71.50;96696.22;4989509;28;20492;-74
2021/03/01 06:58:43;;;;;;;27.63;15.95;;;;;;;1.50;71.71;96705.88;4989113;28;20047;-75
2021/03/01 07:01:13;;;;;;;24.92;16.02;;;;;;;1.55;71.56;96708.69;4989577;28;20103;-73
2021/03/01 07:03:47;;;;;;;27.45;16.63;;;;;;;1.65;71.41;96707.44;4992104;28;20037;-73
2021/03/01 07:06:13;;;;;;;25.83;16.02;;;;;;;1.67;71.25;96706.19;4973099;28;20396;-73
2021/03/01 07:08:54;;;;;;;24.52;14.88;;;;;;;1.68;71.36;96694.69;4989948;28;20058;-75
2021/03/01 07:11:28;;;;;;;25.45;15.63;;;;;;;1.92;71.36;96703.66;4976425;28;20085;-73
2021/03/01 07:14:18;;;;;;;26.38;15.38;;;;;;;1.99;70.86;96709.66;4969411;28;20047;-75
2021/03/01 07:16:48;;;;;;;22.73;15.05;;;;;;;2.13;70.25;96710.38;4970900;28;20497;-73
2021/03/01 07:19:23;;;;;;;26.30;16.50;;;;;;;2.25;70.24;96702.63;4970840;28;20027;-73
2021/03/01 07:21:54;;;;;;;22.63;14.93;;;;;;;2.31;70.28;96696.56;4972416;28;20025;-74
2021/03/01 07:24:24;;;;;;;22.65;14.73;;;;;;;2.45;69.94;96703.28;4970968;28;20057;-77
2021/03/01 07:26:53;;;;;;;20.17;14.13;;;;;;;2.48;69.50;96687.13;4953859;28;20481;-70
2021/03/01 07:29:20;;;;;;;20.58;15.00;;;;;;;2.64;69.41;96698.91;4971177;28;20047;-74
2021/03/01 07:32:00;;;;;;;24.10;13.50;;;;;;;2.56;68.90;96694.72;4971180;28;20043;-73
2021/03/01 07:34:26;;;;;;;30.10;15.45;;;;;;;2.67;68.84;96674.03;4954042;28;20027;-79
2021/03/01 07:36:53;;;;;;;18.27;14.05;;;;;;;2.83;68.90;96697.94;4974479;28;20034;-75
2021/03/01 07:39:19;;;;;;;23.67;14.63;;;;;;;2.93;68.38;96705.31;4972018;28;20561;-69
2021/03/01 07:41:46;;;;;;;20.38;14.65;;;;;;;3.01;68.14;96701.59;4954116;28;20528;-74
2021/03/01 07:44:12;;;;;;;21.58;13.45;;;;;;;3.11;67.97;96707.94;4972162;28;20035;-68
2021/03/01 07:46:41;;;;;;;17.52;13.70;;;;;;;3.21;67.55;96711.91;4972135;28;20070;-83
2021/03/01 07:49:12;;;;;;;24.55;14.82;;;;;;;3.23;67.19;96699.38;4973451;28;20027;-73
2021/03/01 07:51:45;;;;;;;23.08;14.02;;;;;;;3.25;67.29;96711.25;4970525;28;20074;-71
2021/03/01 07:54:13;;;;;;;18.25;13.27;;;;;;;3.38;67.00;96708.50;4971185;28;20047;-86
2021/03/01 07:56:38;;;;;;;17.40;13.95;;;;;;;3.46;67.04;96712.66;4971533;28;20134;-67
2021/03/01 07:59:08;;;;;;;20.92;14.60;;;;;;;3.40;66.91;96687.22;4970644;28;20601;-71
2021/03/01 08:01:34;;;;;;;20.52;14.80;;;;;;;3.47;66.20;96706.34;4970786;28;20428;-77
2021/03/01 08:04:00;;;;;;;17.52;14.25;;;;;;;3.59;66.40;96707.25;4973520;28;20027;-82
2021/03/01 08:06:55;;;;;;;21.17;13.88;;;;;;;3.75;66.23;96707.66;4972180;28;20122;-80
2021/03/01 08:09:50;;;;;;;24.48;14.63;;;;;;;3.85;66.10;96711.38;4973780;28;20041;-75
2021/03/01 08:12:27;;;;;;;19.13;14.10;;;;;;;3.88;66.15;96715.38;4974123;28;20455;-75
2021/03/01 08:14:53;;;;;;;18.08;13.38;;;;;;;3.80;66.03;96699.91;4974409;28;20130;-73
2021/03/01 08:17:24;;;;;;;19.20;13.90;;;;;;;3.98;65.91;96710.38;4956182;28;20158;-72
2021/03/01 08:19:50;;;;;;;21.83;15.38;;;;;;;3.93;65.75;96707.59;4973834;28;20092;-75
2021/03/01 08:22:15;;;;;;;15.82;13.02;;;;;;;4.12;65.24;96708.38;4973768;28;20030;-73
2021/03/01 08:24:47;;;;;;;19.17;12.85;;;;;;;4.25;65.60;96712.63;4975936;28;20097;-76
2021/03/01 08:27:24;;;;;;;22.10;13.45;;;;;;;4.44;65.28;96708.91;4956201;28;20058;-70
2021/03/01 08:30:19;;;;;;;17.73;12.60;;;;;;;4.39;64.95;96704.31;4973848;28;20039;-75
2021/03/01 08:33:09;;;;;;;20.13;12.48;;;;;;;4.51;64.52;96691.19;4975054;28;20039;-86
2021/03/01 08:35:37;;;;;;;15.00;11.82;;;;;;;4.81;64.49;96703.44;4956251;28;20160;-78
2021/03/01 08:38:03;;;;;;;16.77;12.13;;;;;;;4.97;64.02;96705.41;4973616;28;20058;-76
2021/03/01 08:40:29;;;;;;;14.52;11.18;;;;;;;4.99;63.52;96703.34;4956478;28;20039;-79
2021/03/01 08:43:03;;;;;;;16.20;11.07;;;;;;;5.15;62.71;96715.03;4975748;28;20031;-79
2021/03/01 08:45:37;;;;;;;18.25;11.40;;;;;;;5.27;62.81;96707.09;4974093;28;20449;-79
2021/03/01 08:48:09;;;;;;;19.55;11.32;;;;;;;5.21;62.09;96714.09;4973684;28;20581;-78
2021/03/01 08:50:37;;;;;;;14.98;11.32;;;;;;;5.34;62.55;96710.44;4973106;28;20133;-78
2021/03/01 08:53:02;;;;;;;13.50;11.52;;;;;;;5.36;62.39;96684.59;4973610;28;20085;-74
2021/03/01 08:55:28;;;;;;;14.63;11.25;;;;;;;4.69;62.09;96613.81;4973768;28;20485;-81
2021/03/01 08:58:14;;;;;;;18.25;11.93;;;;;;;5.20;62.26;96700.09;4976265;28;20030;-83
2021/03/01 09:00:58;;;;;;;13.45;11.30;;;;;;;5.41;61.96;96717.16;4957636;28;20093;-83
2021/03/01 09:03:32;;;;;;;18.95;10.95;;;;;;;5.52;61.70;96704.97;4973885;28;20035;-73
2021/03/01 09:06:08;;;;;;;14.82;10.88;;;;;;;5.32;61.00;96709.84;4973500;28;20054;-79
2021/03/01 09:08:47;;;;;;;14.50;11.25;;;;;;;5.55;61.54;96716.94;4973370;28;20073;-80
2021/03/01 09:11:24;;;;;;;19.20;12.55;;;;;;;5.55;60.92;96716.94;4973464;28;20046;-78
2021/03/01 09:13:54;;;;;;;14.30;12.75;;;;;;;5.68;60.72;96701.63;4973344;28;20042;-77
2021/03/01 09:16:25;;;;;;;16.50;11.52;;;;;;;5.57;61.05;96689.25;4973100;28;20042;-75
2021/03/01 09:19:08;;;;;;;14.30;11.18;;;;;;;5.54;61.26;96702.94;4974741;28;20027;-76
2021/03/01 09:21:36;;;;;;;15.35;10.38;;;;;;;5.27;60.70;96693.91;4972593;28;20031;-78
2021/03/01 09:24:03;;;;;;;12.13;10.43;;;;;;;5.66;60.25;96706.34;4972809;28;20126;-79
2021/03/01 09:26:34;;;;;;;14.55;10.02;;;;;;;5.77;59.44;96688.06;4973572;28;20090;-75
2021/03/01 09:29:04;;;;;;;12.88;9.70;;;;;;;5.43;61.39;96707.22;4972600;28;20047;-75
2021/03/01 09:31:41;;;;;;;10.77;9.32;;;;;;;6.00;59.33;96698.56;4972749;28;20689;-75
2021/03/01 09:34:07;;;;;;;9.90;8.80;;;;;;;5.92;58.43;96683.88;4974567;28;20105;-77
2021/03/01 09:36:33;;;;;;;13.68;10.32;;;;;;;6.15;58.67;96685.63;4972822;28;20122;-77
2021/03/01 09:39:00;;;;;;;13.85;9.85;;;;;;;6.20;58.53;96698.94;4972472;28;20031;-77
2021/03/01 09:41:38;;;;;;;12.15;9.57;;;;;;;6.42;58.81;96699.03;4954933;28;20445;-79
2021/03/01 09:44:07;;;;;;;10.43;8.90;;;;;;;6.38;57.25;96695.25;4972803;28;20118;-77
2021/03/01 09:46:34;;;;;;;10.55;9.50;;;;;;;6.46;57.33;96686.16;4972408;28;20031;-77
2021/03/01 09:49:06;;;;;;;9.85;8.43;;;;;;;6.61;57.11;96683.75;4974189;28;20023;-77
2021/03/01 09:51:33;;;;;;;9.52;8.52;;;;;;;6.64;56.35;96698.31;4972187;28;20038;-76
2021/03/01 09:54:00;;;;;;;10.00;8.90;;;;;;;6.53;56.44;96696.56;4972929;28;20035;-77
2021/03/01 09:56:42;;;;;;;13.50;9.35;;;;;;;6.75;56.04;96692.94;4973049;28;20050;-78
2021/03/01 09:59:08;;;;;;;9.02;8.10;;;;;;;6.75;55.91;96697.44;4972844;28;20066;-78
2021/03/01 10:01:33;;;;;;;8.75;7.88;;;;;;;6.91;56.07;96687.88;4972633;28;20568;-81
2021/03/01 10:03:58;;;;;;;10.98;8.02;;;;;;;6.84;55.32;96688.06;4957468;28;20027;-78
2021/03/01 10:06:42;;;;;;;11.20;7.97;;;;;;;7.10;55.04;96688.44;4972471;28;20066;-77
2021/03/01 10:09:12;;;;;;;9.75;7.63;;;;;;;7.11;53.26;96669.66;4972563;28;20556;-79
2021/03/01 10:11:38;;;;;;;12.95;8.40;;;;;;;7.28;53.67;96675.72;4972361;28;20031;-79
2021/03/01 10:14:09;;;;;;;9.07;8.20;;;;;;;7.52;53.17;96678.94;4972520;28;20136;-78
2021/03/01 10:16:40;;;;;;;10.48;7.82;;;;;;;7.56;51.74;96655.41;4972259;28;20121;-79
2021/03/01 10:19:24;;;;;;;8.52;7.72;;;;;;;7.34;51.70;96649.31;4956835;28;20033;-79
2021/03/01 10:21:50;;;;;;;7.57;6.18;;;;;;;7.63;51.18;96642.00;4972477;28;20049;-79
2021/03/01 10:24:18;;;;;;;7.53;6.45;;;;;;;7.92;50.61;96661.09;4972524;28;20062;-79
2021/03/01 10:27:03;;;;;;;9.90;7.03;;;;;;;8.08;49.92;96670.78;4972083;28;20049;-79
2021/03/01 10:29:34;;;;;;;8.43;6.07;;;;;;;7.87;48.70;96655.75;4972197;28;20050;-82
2021/03/01 10:32:01;;;;;;;7.18;5.47;;;;;;;7.16;48.86;96571.81;4971371;28;20132;-72
2021/03/01 10:34:36;;;;;;;10.68;5.82;;;;;;;7.88;48.92;96609.66;4970904;28;20043;-69
2021/03/01 10:37:03;;;;;;;7.63;5.22;;;;;;;8.30;47.87;96652.19;4973660;28;20026;-82
2021/03/01 10:39:35;;;;;;;7.07;6.47;;;;;;;8.27;48.12;96650.84;4973914;28;20038;-79
2021/03/01 10:42:16;;;;;;;8.20;6.38;;;;;;;8.57;48.27;96655.63;4975899;28;20051;-79
2021/03/01 10:44:44;;;;;;;8.43;6.32;;;;;;;7.98;48.77;96642.34;4978055;28;20078;-84
2021/03/01 10:47:16;;;;;;;6.70;5.75;;;;;;;8.66;47.88;96655.97;4977691;28;20039;-82
2021/03/01 10:49:43;;;;;;;9.90;6.13;;;;;;;8.48;46.99;96653.69;4976143;28;20058;-76
2021/03/01 10:52:10;;;;;;;7.55;5.25;;;;;;;8.88;46.71;96623.19;4975687;28;20014;-75
2021/03/01 10:54:37;;;;;;;7.60;5.65;;;;;;;8.89;45.02;96630.09;4978336;28;20019;-80
2021/03/01 10:57:03;;;;;;;6.22;4.90;;;;;;;8.97;44.42;96649.00;4975318;28;20370;-84
2021/03/01 10:59:29;;;;;;;6.13;5.32;;;;;;;8.88;44.16;96642.56;4959482;28;20050;-78
2021/03/01 11:01:55;;;;;;;5.38;4.88;;;;;;;9.02;43.59;96642.94;4976082;28;20085;-77
2021/03/01 11:04:20;;;;;;;7.80;5.20;;;;;;;9.14;44.02;96645.38;4957271;28;20030;-76
2021/03/01 11:06:47;;;;;;;6.63;5.28;;;;;;;9.24;43.86;96638.25;4961075;28;20037;-72
2021/03/01 11:09:13;;;;;;;7.60;5.28;;;;;;;9.33;43.80;96643.88;4973913;28;20031;-68
2021/03/01 11:11:39;;;;;;;8.85;6.10;;;;;;;9.33;43.70;96641.22;4955420;28;20100;-80
2021/03/01 11:14:05;;;;;;;6.75;5.82;;;;;;;9.09;42.93;96638.97;4971743;28;20058;-79
2021/03/01 11:16:30;;;;;;;7.20;5.57;;;;;;;9.38;42.32;96623.47;4971384;28;20038;-79
2021/03/01 11:18:56;;;;;;;9.73;5.65;;;;;;;9.45;43.22;96633.84;4973170;28;20736;-78
2021/03/01 11:21:22;;;;;;;7.18;5.35;;;;;;;9.63;42.11;96622.75;4970945;28;20039;-78
2021/03/01 11:23:47;;;;;;;7.10;6.15;;;;;;;9.56;41.99;96616.06;4971171;28;20051;-80
2021/03/01 11:26:14;;;;;;;10.43;6.03;;;;;;;9.53;41.35;96613.97;4971384;28;20393;-78
2021/03/01 11:28:40;;;;;;;7.07;6.03;;;;;;;9.72;41.80;96620.38;4970951;28;20047;-78
2021/03/01 11:31:05;;;;;;;8.25;5.70;;;;;;;9.83;42.52;96623.88;4955774;28;20038;-76
2021/03/01 11:33:30;;;;;;;12.98;6.20;;;;;;;9.99;41.94;96622.84;4971053;28;20043;-77
2021/03/01 11:35:56;;;;;;;7.03;6.32;;;;;;;10.06;41.44;96610.06;4971358;28;20158;-79